Houghton County Memorial Airport
KCMX : now visible

Airfield :











YOU CAN JOIN US ON...

 
LOGIN :

Register | Disclaimer

   EN    FR    IT 

 









Legend :    VFR   Marginal VFR   IFR   Intensive IFR   Very Intensive IFR
Visi :
Ceiling :
>= 8 km
>= 3000ft
5 to 8 km
1000 to 3000 ft
1500m to 5 km
500 to 1000 ft
800 to 1500m
200 to 500 ft
< 800m
< 200 ft
Symbols :   Thunderstorms  Fog  Heavy snow  Heavy precipitations  Wind > 20 kt






- Airport Elevation : 1095 ft
- IATA code : CMX


KCMX - Houghton County Memorial

CURRENT METAR :
  • 281753Z AUTO 11013G20KT 10SM FEW110 04/M01 A2991 RMK AO2 SLP139 T00441011 10067 20039 55001 $

EXPIRED METARs :
  • 281653Z AUTO 10010G17KT 10SM CLR 07/M02 A2990 RMK AO2 SLP134 T00671017 $
  • 281553Z AUTO 08008KT 10SM CLR 06/M02 A2990 RMK AO2 SLP135 T00611017 $

TAF KCMX
Valid from the 28 at 18:00 until the 29 at 18:00 UTC


281733Z 2818/2918 08011KT P6SM BKN150
FM290200 09015KT 6SM -RA BR OVC040
FM290400 08017G25KT 5SM RA BR OVC029
FM290600 07018G28KT 2SM RA BR OVC008 WS020/09050KT
FM291100 06016KT 2SM RASN BR OVC005



MET'MAP, your aeronautical weather chart ! - Copyright ORBIFLY December 2007 - Disclaimer

ORBIFLY MET'MAP TEAM :

Programming & Development : Alexandra Zaïnal
Concept & original design : Baudouin d'Aumeries
Assistance for programming : Marc-Olivier Méhu
Technical & hardware support : Manuel Goepfert

Contact : metmap@orbifly.com




SOURCES & CREDITS :

   NOAA       Earth
Advisory